Amritsar, India

9:54 PM IST on May 27, 2015 (GMT +0530)
Amritsar | | Change Station
CLOSE
Current Station
Airport
Location: Amritsar,
Elevation: 755 ft
Nearby Weather Stations

Elev 755 ft 31.71 °N, 74.80 °E | Updated 24 minutes ago

Partly Cloudy
Partly Cloudy
88 °F
Feels Like 88 °F
N
0
Wind Variable Wind from North

Today
High -- | Low -- °F
--% Chance of Precip.
Yesterday
High -- | Low -- °F
Precip. -- in
5:28 AM 7:28 PM
Waxing Gibbous, 68% visible
Pressure 29.62 in
Visibility 2.2 miles
Clouds Few 4000 ft
Dew Point 50 °F
Humidity 27%
Rainfall 0.00 in
Snow Depth Not available.
UV 0 out of 12
Pollen Not available.
Air Quality Not available.
Flu Activity Not available.
METAR VIAR 271600Z 00000KT 3500 DU FEW040 31/10 Q1003

More Conditions Fewer Conditions

Pressure 29.62 in
Visibility 2.2 miles
Clouds Few 4000 ft
Dew Point 50 °F
Humidity 27%
Rainfall 0.00 in
Snow Depth Not available.
UV 0 out of 12
Pollen Not available.
Air Quality Not available.
Flu Activity Not available.
METAR VIAR 271600Z 00000KT 3500 DU FEW040 31/10 Q1003

More Conditions Fewer Conditions

10-Day Weather Forecast

Almanac

Astronomy

May. 27, 2015 Rise Set
Actual Time
Civil Twilight
Nautical Twilight
Astronomical Twilight
Moon
Length of Visible Light
Length of Day
Tomorrow will be .
, % of the Moon is Illuminated

Today's Extremes

Country Highs Country Lows

Community

WunderPhotos

Upload Photos

1,824,711 photos uploaded!

WunderBlogs® & News

Nearby

Air Quality

  Air Quality AQ Index Pollutant
Not available.

Snow Depth

Station Depth Elevation

Earthquake Activity

City Distance Mag. Time & Date
Minimum magnitude displayed is 2.5.

Coastal Water Temperatures

Place Temperature

Stations

Nearby Weather Stations

Station Location Temp. Windchill Dew Point Humidity Wind Precip. Elev Updated Type